createdAt,value
2023-06-10T00:02:05.158Z,58.11
2023-06-10T00:04:31.326Z,58.14
2023-06-10T00:06:57.530Z,58.26
2023-06-10T00:09:23.673Z,58.14
2023-06-10T00:11:49.848Z,58.21
2023-06-10T00:14:16.023Z,58.20
2023-06-10T00:16:42.375Z,58.24
2023-06-10T00:19:08.695Z,57.85
2023-06-10T00:21:34.890Z,57.94
2023-06-10T00:24:01.049Z,58.11
2023-06-10T00:26:27.212Z,58.21
2023-06-10T00:28:53.384Z,58.21
2023-06-10T00:31:19.609Z,58.25
2023-06-10T00:33:45.792Z,58.26
2023-06-10T00:36:11.960Z,58.13
2023-06-10T00:38:38.091Z,58.30
2023-06-10T00:41:04.223Z,58.19
2023-06-10T00:43:30.406Z,58.27
2023-06-10T00:45:56.581Z,58.25
2023-06-10T00:48:22.767Z,58.30
2023-06-10T00:50:48.962Z,58.35
2023-06-10T00:53:15.116Z,58.38
2023-06-10T00:55:41.267Z,58.31
2023-06-10T00:58:07.438Z,58.39
2023-06-10T01:00:33.586Z,58.41
2023-06-10T01:02:59.801Z,58.30
2023-06-10T01:05:26.045Z,58.30
2023-06-10T01:07:52.180Z,58.36
2023-06-10T01:10:18.366Z,58.32
2023-06-10T01:12:44.554Z,58.43
2023-06-10T01:15:10.952Z,58.35
2023-06-10T01:17:37.518Z,58.32
2023-06-10T01:20:03.667Z,58.32
2023-06-10T01:22:29.795Z,58.32
2023-06-10T01:24:55.938Z,58.42
2023-06-10T01:27:22.117Z,58.57
2023-06-10T01:29:48.244Z,58.39
2023-06-10T01:32:14.384Z,58.24
2023-06-10T01:34:40.613Z,58.30
2023-06-10T01:37:06.756Z,58.36
2023-06-10T01:39:33.011Z,58.44
2023-06-10T01:41:59.216Z,58.44
2023-06-10T01:44:25.372Z,58.47
2023-06-10T01:46:51.608Z,58.48
2023-06-10T01:49:17.904Z,58.48
2023-06-10T01:51:44.051Z,58.28
2023-06-10T01:54:10.187Z,58.48
2023-06-10T01:56:36.336Z,58.36
2023-06-10T01:59:02.486Z,58.39
2023-06-10T02:01:28.711Z,58.05
2023-06-10T02:03:55.014Z,58.27
2023-06-10T02:06:21.188Z,58.46
2023-06-10T02:08:47.326Z,58.49
2023-06-10T02:11:13.560Z,58.44
2023-06-10T02:13:39.708Z,58.45
2023-06-10T02:16:05.905Z,58.55
2023-06-10T02:18:32.100Z,58.54
2023-06-10T02:20:58.239Z,58.62
2023-06-10T02:23:24.410Z,58.58
2023-06-10T02:25:50.652Z,58.46
2023-06-10T02:28:16.798Z,58.60
2023-06-10T02:30:42.940Z,58.48
2023-06-10T02:33:09.193Z,58.61
2023-06-10T02:35:35.426Z,58.60
2023-06-10T02:38:01.581Z,58.64
2023-06-10T02:40:27.778Z,58.50
2023-06-10T02:42:53.926Z,58.54
2023-06-10T02:45:20.091Z,58.63
2023-06-10T02:47:46.277Z,58.43
2023-06-10T02:50:12.482Z,58.59
2023-06-10T02:52:38.680Z,58.49
2023-06-10T02:55:04.873Z,58.48
2023-06-10T02:57:31.030Z,58.63
2023-06-10T02:59:57.185Z,58.57
2023-06-10T03:02:23.371Z,58.41
2023-06-10T03:04:49.526Z,58.58
2023-06-10T03:07:15.667Z,58.58
2023-06-10T03:09:43.953Z,58.78
2023-06-10T03:12:11.757Z,58.25
2023-06-10T03:14:37.903Z,58.12
2023-06-10T03:17:04.060Z,58.39
2023-06-10T03:19:30.227Z,58.40
2023-06-10T03:21:56.367Z,58.52
2023-06-10T03:24:22.641Z,58.70
2023-06-10T03:26:48.853Z,58.38
2023-06-10T03:29:14.994Z,58.46
2023-06-10T03:31:41.228Z,58.53
2023-06-10T03:34:07.414Z,58.74
2023-06-10T03:36:33.617Z,58.66
2023-06-10T03:38:59.811Z,58.65
2023-06-10T03:41:25.961Z,58.58
2023-06-10T03:43:52.136Z,58.69
2023-06-10T03:46:18.388Z,58.76
2023-06-10T03:48:44.539Z,58.62
2023-06-10T03:51:10.666Z,58.75
2023-06-10T03:53:36.828Z,58.64
2023-06-10T03:56:02.986Z,58.74
2023-06-10T03:58:29.145Z,58.67
2023-06-10T04:00:55.350Z,58.69
2023-06-10T04:03:21.503Z,58.64
2023-06-10T04:05:47.681Z,58.56
2023-06-10T04:08:13.949Z,58.69
2023-06-10T04:10:40.131Z,58.67
2023-06-10T04:13:06.295Z,58.38
2023-06-10T04:15:32.468Z,58.17
2023-06-10T04:17:58.627Z,58.04
2023-06-10T04:20:24.800Z,57.99
2023-06-10T04:22:50.951Z,57.78
2023-06-10T04:25:17.116Z,57.69
2023-06-10T04:27:43.291Z,57.84
2023-06-10T04:30:09.456Z,57.80
2023-06-10T04:32:35.634Z,57.51
2023-06-10T04:35:01.806Z,57.66
2023-06-10T04:37:28.020Z,57.60
2023-06-10T04:39:54.143Z,57.63
2023-06-10T04:42:20.293Z,57.75
2023-06-10T04:44:46.516Z,57.73
2023-06-10T04:47:12.701Z,57.68
2023-06-10T04:49:38.870Z,57.59
2023-06-10T04:52:05.149Z,57.62
2023-06-10T04:54:31.290Z,57.68
2023-06-10T04:56:57.426Z,57.55
2023-06-10T04:59:23.603Z,57.61
2023-06-10T05:01:49.892Z,57.67
2023-06-10T05:04:16.049Z,57.60
2023-06-10T05:06:42.211Z,57.69
2023-06-10T05:09:08.398Z,57.69
2023-06-10T05:11:34.802Z,57.66
2023-06-10T05:14:00.960Z,57.40
2023-06-10T05:16:27.185Z,57.59
2023-06-10T05:18:53.486Z,57.62
2023-06-10T05:21:19.649Z,57.61
2023-06-10T05:23:46.075Z,57.57
2023-06-10T05:26:12.243Z,57.62
2023-06-10T05:28:38.508Z,57.60
2023-06-10T05:31:04.671Z,57.58
2023-06-10T05:33:30.849Z,57.47
2023-06-10T05:35:57.042Z,57.61
2023-06-10T05:38:23.214Z,57.89
2023-06-10T05:40:49.353Z,58.12
2023-06-10T05:43:15.524Z,58.34
2023-06-10T05:45:41.691Z,58.41
2023-06-10T05:48:07.948Z,58.46
2023-06-10T05:50:34.135Z,58.44
2023-06-10T05:53:00.283Z,58.45
2023-06-10T05:55:26.430Z,58.50
2023-06-10T05:57:52.606Z,58.37
2023-06-10T06:00:18.742Z,58.50
2023-06-10T06:02:45.007Z,58.61
2023-06-10T06:05:11.443Z,58.63
2023-06-10T06:07:37.880Z,58.54
2023-06-10T06:10:04.017Z,58.53
2023-06-10T06:12:30.265Z,58.62
2023-06-10T06:14:56.393Z,58.54
2023-06-10T06:17:22.551Z,58.70
2023-06-10T06:19:48.740Z,58.50
2023-06-10T06:22:14.894Z,58.68
2023-06-10T06:24:41.131Z,58.59
2023-06-10T06:27:07.329Z,58.52
2023-06-10T06:29:33.467Z,58.49
2023-06-10T06:32:00.266Z,58.43
2023-06-10T06:34:26.530Z,58.42
2023-06-10T06:36:52.673Z,58.29
2023-06-10T06:39:18.829Z,58.30
2023-06-10T06:41:45.050Z,58.41
2023-06-10T06:44:11.208Z,58.25
2023-06-10T06:46:37.360Z,58.45
2023-06-10T06:49:03.518Z,58.22
2023-06-10T06:51:29.668Z,58.28
2023-06-10T06:53:55.813Z,58.34
2023-06-10T06:56:21.966Z,58.18
2023-06-10T06:58:48.097Z,58.22
2023-06-10T07:01:14.356Z,58.27
2023-06-10T07:03:40.568Z,58.36
2023-06-10T07:06:06.719Z,58.33
2023-06-10T07:08:32.881Z,58.42
2023-06-10T07:10:59.123Z,58.25
2023-06-10T07:13:25.264Z,58.31
2023-06-10T07:15:51.434Z,58.31
2023-06-10T07:18:17.585Z,58.28
2023-06-10T07:20:43.749Z,58.37
2023-06-10T07:23:09.887Z,58.27
2023-06-10T07:25:36.051Z,58.12
2023-06-10T07:28:02.196Z,58.23
2023-06-10T07:30:28.328Z,58.27
2023-06-10T07:32:54.519Z,58.31
2023-06-10T07:35:20.734Z,58.32
2023-06-10T07:37:46.901Z,58.20
2023-06-10T07:40:13.094Z,58.25
2023-06-10T07:42:39.231Z,58.25
2023-06-10T07:45:05.400Z,58.34
2023-06-10T07:47:31.654Z,58.27
2023-06-10T07:49:57.809Z,58.26
2023-06-10T07:52:23.938Z,58.22
2023-06-10T07:54:50.087Z,58.23
2023-06-10T07:57:16.272Z,58.17
2023-06-10T07:59:42.423Z,58.23
2023-06-10T08:02:08.607Z,58.25
2023-06-10T08:04:34.860Z,58.28
2023-06-10T08:07:01.065Z,58.16
2023-06-10T08:09:27.225Z,58.28
2023-06-10T08:11:53.368Z,58.13
2023-06-10T08:14:19.520Z,58.23
2023-06-10T08:16:45.848Z,58.23
2023-06-10T08:19:12.057Z,58.21
2023-06-10T08:21:38.240Z,58.11
2023-06-10T08:24:04.478Z,58.12
2023-06-10T08:26:30.622Z,58.10
2023-06-10T08:28:56.780Z,58.24
2023-06-10T08:31:22.955Z,58.27
2023-06-10T08:33:49.120Z,58.21
2023-06-10T08:36:15.260Z,58.10
2023-06-10T08:38:41.471Z,58.15
2023-06-10T08:41:07.636Z,58.13
2023-06-10T08:43:33.779Z,58.11
2023-06-10T08:45:59.968Z,58.15
2023-06-10T08:48:26.133Z,58.06
2023-06-10T08:50:52.283Z,58.00
2023-06-10T08:53:18.450Z,58.15
2023-06-10T08:55:44.588Z,58.17
2023-06-10T08:58:10.713Z,58.14
2023-06-10T09:00:37.006Z,58.14
2023-06-10T09:03:05.235Z,58.10
2023-06-10T09:05:31.755Z,58.13
2023-06-10T09:07:57.981Z,58.07
2023-06-10T09:10:24.155Z,58.08
2023-06-10T09:12:50.321Z,58.13
2023-06-10T09:15:16.557Z,57.89
2023-06-10T09:17:42.748Z,57.93
2023-06-10T09:20:10.776Z,57.98
2023-06-10T09:22:37.466Z,57.96
2023-06-10T09:25:03.625Z,57.99
2023-06-10T09:27:29.753Z,58.03
2023-06-10T09:29:55.966Z,57.85
2023-06-10T09:32:22.207Z,57.79
2023-06-10T09:34:48.404Z,57.86
2023-06-10T09:37:14.596Z,57.96
2023-06-10T09:39:40.742Z,57.98
2023-06-10T09:42:06.943Z,58.06
2023-06-10T09:44:33.176Z,58.00
2023-06-10T09:46:59.327Z,57.99
2023-06-10T09:49:25.458Z,57.92
2023-06-10T09:51:51.872Z,58.06
2023-06-10T09:54:18.052Z,57.79
2023-06-10T09:56:44.203Z,57.62
2023-06-10T09:59:10.383Z,57.59
2023-06-10T10:01:36.577Z,57.87
2023-06-10T10:04:02.769Z,57.88
2023-06-10T10:06:29.017Z,57.89
2023-06-10T10:08:55.321Z,57.93
2023-06-10T10:11:21.561Z,57.92
2023-06-10T10:13:47.749Z,57.99
2023-06-10T10:16:13.910Z,57.94
2023-06-10T10:18:40.088Z,58.09
2023-06-10T10:21:06.371Z,57.99
2023-06-10T10:23:32.616Z,57.85
2023-06-10T10:25:58.903Z,57.83
2023-06-10T10:28:25.134Z,57.83
2023-06-10T10:30:51.281Z,57.81
2023-06-10T10:33:17.566Z,58.05
2023-06-10T10:35:43.824Z,57.84
2023-06-10T10:38:09.962Z,57.83
2023-06-10T10:40:36.099Z,57.99
2023-06-10T10:43:02.258Z,58.00
2023-06-10T10:45:28.401Z,57.97
2023-06-10T10:47:54.646Z,57.90
2023-06-10T10:50:20.909Z,57.93
2023-06-10T10:52:47.192Z,58.01
2023-06-10T10:55:13.361Z,57.63
2023-06-10T10:57:39.534Z,57.48
2023-06-10T11:00:05.710Z,57.65
2023-06-10T11:02:31.949Z,57.76
2023-06-10T11:04:58.247Z,57.75
2023-06-10T11:07:24.489Z,57.75
2023-06-10T11:09:50.673Z,57.96
2023-06-10T11:12:16.836Z,57.92
2023-06-10T11:14:42.979Z,57.92
2023-06-10T11:17:09.134Z,57.86
2023-06-10T11:19:35.308Z,57.85
2023-06-10T11:22:01.489Z,57.83
2023-06-10T11:24:27.742Z,57.87
2023-06-10T11:26:53.937Z,57.85
2023-06-10T11:29:20.155Z,57.85
2023-06-10T11:31:46.329Z,57.88
2023-06-10T11:34:12.491Z,57.83
2023-06-10T11:36:38.639Z,58.10
2023-06-10T11:39:04.794Z,57.91
2023-06-10T11:41:30.959Z,57.86
2023-06-10T11:43:57.095Z,57.79
2023-06-10T11:46:23.368Z,57.87
2023-06-10T11:48:49.569Z,57.77
2023-06-10T11:51:15.711Z,57.79
2023-06-10T11:53:41.861Z,57.80
2023-06-10T11:56:08.083Z,57.88
2023-06-10T11:58:34.214Z,57.80
2023-06-10T12:01:00.356Z,57.79
2023-06-10T12:03:26.645Z,57.81
2023-06-10T12:05:52.904Z,57.85
2023-06-10T12:08:19.178Z,57.83
2023-06-10T12:10:45.385Z,57.69
2023-06-10T12:13:11.520Z,57.83
2023-06-10T12:15:37.672Z,57.80
2023-06-10T12:18:03.905Z,57.76
2023-06-10T12:20:30.087Z,57.81
2023-06-10T12:22:56.232Z,57.80
2023-06-10T12:25:22.446Z,57.83
2023-06-10T12:27:48.585Z,57.74
2023-06-10T12:30:14.729Z,57.75
2023-06-10T12:32:41.011Z,57.75
2023-06-10T12:35:07.475Z,57.71
2023-06-10T12:37:34.051Z,57.77
2023-06-10T12:40:00.219Z,57.66
2023-06-10T12:42:26.360Z,57.70
2023-06-10T12:44:52.494Z,57.73
2023-06-10T12:47:18.682Z,57.75
2023-06-10T12:49:44.827Z,57.69
2023-06-10T12:52:10.987Z,57.67
2023-06-10T12:54:37.162Z,57.60
2023-06-10T12:57:03.313Z,57.60
2023-06-10T12:59:29.896Z,57.68
2023-06-10T13:01:56.138Z,57.58
2023-06-10T13:04:22.338Z,57.66
2023-06-10T13:06:48.546Z,57.75
2023-06-10T13:09:14.723Z,57.62
2023-06-10T13:11:42.116Z,57.60
2023-06-10T13:14:08.281Z,57.62
2023-06-10T13:16:36.477Z,57.58
2023-06-10T13:19:03.832Z,57.59
2023-06-10T13:21:30.032Z,57.50
2023-06-10T13:23:56.298Z,57.60
2023-06-10T13:26:22.500Z,57.47
2023-06-10T13:28:48.649Z,57.53
2023-06-10T13:31:14.868Z,57.48
2023-06-10T13:33:40.997Z,57.48
2023-06-10T13:36:07.147Z,57.48
2023-06-10T13:38:33.498Z,57.47
2023-06-10T13:41:00.729Z,57.29
2023-06-10T13:43:28.426Z,57.56
2023-06-10T13:45:54.617Z,57.53
2023-06-10T13:48:20.772Z,57.53
2023-06-10T13:50:47.006Z,57.47
2023-06-10T13:53:13.166Z,57.52
2023-06-10T13:55:39.307Z,57.42
2023-06-10T13:58:05.460Z,57.39
2023-06-10T14:00:31.609Z,57.45
2023-06-10T14:02:57.837Z,57.34
2023-06-10T14:05:24.050Z,57.31
2023-06-10T14:07:50.229Z,57.31
2023-06-10T14:10:16.391Z,57.34
2023-06-10T14:12:42.538Z,57.37
2023-06-10T14:15:08.943Z,57.30
2023-06-10T14:17:35.545Z,57.36
2023-06-10T14:20:01.757Z,57.33
2023-06-10T14:22:28.033Z,57.35
2023-06-10T14:24:54.218Z,57.41
2023-06-10T14:27:20.374Z,57.31
2023-06-10T14:29:46.577Z,57.34
2023-06-10T14:32:12.749Z,57.31
2023-06-10T14:34:38.921Z,57.26
2023-06-10T14:37:05.065Z,57.35
2023-06-10T14:39:31.259Z,57.45
2023-06-10T14:41:57.411Z,57.32
2023-06-10T14:44:23.587Z,57.19
2023-06-10T14:46:49.811Z,57.21
2023-06-10T14:49:15.980Z,57.16
2023-06-10T14:51:42.148Z,57.25
2023-06-10T14:54:08.294Z,57.18
2023-06-10T14:56:34.463Z,57.21
2023-06-10T14:59:00.638Z,57.19
2023-06-10T15:01:26.833Z,57.13
2023-06-10T15:03:53.013Z,57.23
2023-06-10T15:06:19.596Z,57.33
2023-06-10T15:08:45.736Z,57.25
2023-06-10T15:11:11.982Z,57.19
2023-06-10T15:13:38.203Z,57.10
2023-06-10T15:16:04.615Z,57.13
2023-06-10T15:18:30.812Z,57.27
2023-06-10T15:20:56.983Z,57.24
2023-06-10T15:23:23.129Z,57.15
2023-06-10T15:25:49.295Z,57.09
2023-06-10T15:28:15.463Z,57.11
2023-06-10T15:30:41.618Z,57.10
2023-06-10T15:33:07.873Z,57.15
2023-06-10T15:35:34.156Z,57.18
2023-06-10T15:38:00.348Z,57.07
2023-06-10T15:40:26.536Z,57.10
2023-06-10T15:42:52.791Z,57.09
2023-06-10T15:45:18.997Z,57.11
2023-06-10T15:47:45.153Z,56.91
2023-06-10T15:50:11.354Z,57.06
2023-06-10T15:52:37.528Z,57.04
2023-06-10T15:55:03.745Z,57.00
2023-06-10T15:57:29.958Z,57.05
2023-06-10T15:59:56.106Z,57.01
2023-06-10T16:02:22.277Z,56.92
2023-06-10T16:04:48.527Z,57.04
2023-06-10T16:07:14.681Z,57.04
2023-06-10T16:09:41.039Z,57.01
2023-06-10T16:12:07.285Z,57.04
2023-06-10T16:14:33.450Z,57.01
2023-06-10T16:16:59.644Z,56.96
2023-06-10T16:19:25.855Z,56.97
2023-06-10T16:21:52.009Z,56.97
2023-06-10T16:24:18.229Z,56.88
2023-06-10T16:26:44.430Z,56.92
2023-06-10T16:29:10.592Z,56.98
2023-06-10T16:31:36.846Z,56.93
2023-06-10T16:34:03.083Z,57.00
2023-06-10T16:36:29.240Z,56.87
2023-06-10T16:38:55.412Z,56.96
2023-06-10T16:41:21.594Z,56.90
2023-06-10T16:43:47.756Z,56.94
2023-06-10T16:46:13.896Z,56.97
2023-06-10T16:48:40.064Z,56.91
2023-06-10T16:51:06.272Z,56.91
2023-06-10T16:53:32.484Z,56.99
2023-06-10T16:56:00.736Z,56.90
2023-06-10T16:58:28.555Z,56.89
2023-06-10T17:00:54.915Z,56.87
2023-06-10T17:03:21.129Z,56.90
2023-06-10T17:05:47.305Z,56.82
2023-06-10T17:08:13.469Z,56.95
2023-06-10T17:10:39.650Z,56.89
2023-06-10T17:13:05.811Z,56.91
2023-06-10T17:15:31.957Z,56.94
2023-06-10T17:17:58.645Z,56.88
2023-06-10T17:20:24.855Z,56.86
2023-06-10T17:22:51.037Z,56.88
2023-06-10T17:25:17.195Z,56.89
2023-06-10T17:27:43.332Z,56.93
2023-06-10T17:30:09.501Z,56.87
2023-06-10T17:32:35.847Z,56.88
2023-06-10T17:35:02.078Z,56.93
2023-06-10T17:37:28.229Z,56.86
2023-06-10T17:39:54.576Z,57.03
2023-06-10T17:42:20.720Z,56.82
2023-06-10T17:44:46.873Z,56.77
2023-06-10T17:47:13.048Z,56.85
2023-06-10T17:49:39.222Z,56.83
2023-06-10T17:52:05.364Z,56.78
2023-06-10T17:54:31.525Z,56.80
2023-06-10T17:56:57.654Z,56.83
2023-06-10T17:59:23.815Z,56.82
2023-06-10T18:01:50.026Z,56.84
2023-06-10T18:04:16.271Z,56.83
2023-06-10T18:06:42.444Z,56.90
2023-06-10T18:09:10.165Z,56.76
2023-06-10T18:11:38.612Z,56.81
2023-06-10T18:14:04.765Z,56.74
2023-06-10T18:16:31.028Z,56.81
2023-06-10T18:18:57.200Z,56.83
2023-06-10T18:21:23.363Z,56.83
2023-06-10T18:23:49.671Z,56.79
2023-06-10T18:26:15.895Z,56.84
2023-06-10T18:28:42.036Z,56.77
2023-06-10T18:31:08.196Z,56.83
2023-06-10T18:33:34.344Z,56.81
2023-06-10T18:36:00.557Z,56.69
2023-06-10T18:38:26.751Z,56.80
2023-06-10T18:40:52.893Z,56.91
2023-06-10T18:43:19.050Z,56.89
2023-06-10T18:45:45.269Z,56.78
2023-06-10T18:48:11.569Z,56.85
2023-06-10T18:50:37.747Z,56.82
2023-06-10T18:53:03.920Z,56.85
2023-06-10T18:55:33.192Z,56.92
2023-06-10T18:57:59.572Z,56.85
2023-06-10T19:00:25.731Z,56.83
2023-06-10T19:02:52.015Z,56.86
2023-06-10T19:05:18.234Z,56.91
2023-06-10T19:07:44.394Z,56.85
2023-06-10T19:10:10.573Z,56.86
2023-06-10T19:12:36.724Z,56.94
2023-06-10T19:15:03.054Z,56.89
2023-06-10T19:17:29.251Z,56.92
2023-06-10T19:19:55.394Z,56.96
2023-06-10T19:22:21.583Z,56.83
2023-06-10T19:24:47.711Z,56.84
2023-06-10T19:27:13.841Z,56.92
2023-06-10T19:29:40.017Z,57.00
2023-06-10T19:32:06.195Z,56.98
2023-06-10T19:34:32.448Z,56.94
2023-06-10T19:36:58.703Z,57.00
2023-06-10T19:39:24.833Z,57.04
2023-06-10T19:41:50.970Z,57.03
2023-06-10T19:44:17.135Z,56.98
2023-06-10T19:46:43.312Z,57.06
2023-06-10T19:49:09.470Z,56.99
2023-06-10T19:51:35.678Z,56.97
2023-06-10T19:54:01.839Z,57.09
2023-06-10T19:56:27.980Z,57.10
2023-06-10T19:58:54.168Z,57.02
2023-06-10T20:01:20.368Z,57.13
2023-06-10T20:03:46.561Z,57.07
2023-06-10T20:06:12.765Z,57.13
2023-06-10T20:08:38.965Z,57.12
2023-06-10T20:11:05.124Z,57.17
2023-06-10T20:13:31.281Z,57.19
2023-06-10T20:15:57.462Z,57.12
2023-06-10T20:18:23.600Z,57.18
2023-06-10T20:20:49.789Z,57.14
2023-06-10T20:23:15.925Z,57.25
2023-06-10T20:25:42.082Z,57.18
2023-06-10T20:28:08.402Z,57.20
2023-06-10T20:30:34.559Z,57.31
2023-06-10T20:33:00.808Z,57.29
2023-06-10T20:35:27.019Z,57.34
2023-06-10T20:37:53.183Z,57.30
2023-06-10T20:40:19.335Z,57.27
2023-06-10T20:42:45.549Z,57.28
2023-06-10T20:45:11.868Z,57.27
2023-06-10T20:47:38.330Z,57.38
2023-06-10T20:50:04.543Z,57.33
2023-06-10T20:52:30.694Z,57.37
2023-06-10T20:54:56.863Z,57.37
2023-06-10T20:57:23.015Z,57.34
2023-06-10T20:59:49.153Z,57.41
2023-06-10T21:02:15.284Z,57.30
2023-06-10T21:04:41.444Z,57.47
2023-06-10T21:07:07.612Z,57.42
2023-06-10T21:09:33.772Z,57.37
2023-06-10T21:11:59.953Z,57.43
2023-06-10T21:14:26.126Z,57.37
2023-06-10T21:16:52.296Z,57.43
2023-06-10T21:19:18.469Z,57.51
2023-06-10T21:21:44.615Z,57.48
2023-06-10T21:24:10.817Z,57.46
2023-06-10T21:26:37.098Z,57.49
2023-06-10T21:29:03.734Z,57.46
2023-06-10T21:31:30.200Z,57.51
2023-06-10T21:33:56.505Z,57.46
2023-06-10T21:36:24.046Z,57.51
2023-06-10T21:38:50.202Z,57.42
2023-06-10T21:41:16.386Z,57.53
2023-06-10T21:43:42.553Z,57.53
2023-06-10T21:46:08.708Z,57.50
2023-06-10T21:48:34.935Z,57.54
2023-06-10T21:51:01.160Z,57.59
2023-06-10T21:53:27.359Z,57.58
2023-06-10T21:55:53.517Z,57.60
2023-06-10T21:58:19.663Z,57.66
2023-06-10T22:00:45.841Z,57.54
2023-06-10T22:03:12.138Z,57.64
2023-06-10T22:05:38.405Z,57.60
2023-06-10T22:08:04.537Z,57.60
2023-06-10T22:10:30.714Z,57.66
2023-06-10T22:12:56.854Z,57.67
2023-06-10T22:15:23.009Z,57.72
2023-06-10T22:17:49.181Z,57.68
2023-06-10T22:20:15.446Z,57.70
2023-06-10T22:22:41.588Z,57.73
2023-06-10T22:25:08.031Z,57.74
2023-06-10T22:27:34.338Z,57.75
2023-06-10T22:30:00.475Z,57.75
2023-06-10T22:32:27.070Z,57.66
2023-06-10T22:34:53.253Z,57.72
2023-06-10T22:37:19.378Z,57.79
2023-06-10T22:39:45.523Z,57.81
2023-06-10T22:42:11.667Z,58.02
2023-06-10T22:44:37.823Z,57.83
2023-06-10T22:47:04.069Z,57.85
2023-06-10T22:49:30.195Z,57.89
2023-06-10T22:51:56.344Z,57.80
2023-06-10T22:54:22.661Z,57.80
2023-06-10T22:56:48.827Z,57.82
2023-06-10T22:59:14.986Z,57.87
2023-06-10T23:01:41.273Z,57.82
2023-06-10T23:04:07.581Z,57.88
2023-06-10T23:06:33.760Z,57.84
2023-06-10T23:08:59.944Z,57.83
2023-06-10T23:11:26.117Z,57.91
2023-06-10T23:13:52.288Z,57.88
2023-06-10T23:16:18.527Z,57.88
2023-06-10T23:18:44.713Z,57.89
2023-06-10T23:21:10.858Z,57.88
2023-06-10T23:23:37.083Z,57.94
2023-06-10T23:26:03.265Z,57.84
2023-06-10T23:28:29.417Z,58.00
2023-06-10T23:30:55.587Z,57.92
2023-06-10T23:33:21.846Z,57.91
2023-06-10T23:35:48.064Z,57.98
2023-06-10T23:38:14.233Z,57.93
2023-06-10T23:40:40.389Z,57.95
2023-06-10T23:43:06.525Z,57.94
2023-06-10T23:45:32.718Z,57.97
2023-06-10T23:47:58.926Z,57.93
2023-06-10T23:50:25.170Z,57.95
2023-06-10T23:52:51.402Z,57.96
2023-06-10T23:55:17.566Z,57.94
2023-06-10T23:57:43.712Z,58.02
